sensor_id;sensor_type;location;lat;lon;timestamp;P1;durP1;ratioP1;P2;durP2;ratioP2
56455;SDS011;42354;53.218;6.564;2022-12-16T00:00:54;67.70;;;36.88;;
56455;SDS011;42354;53.218;6.564;2022-12-16T00:03:27;73.80;;;36.33;;
56455;SDS011;42354;53.218;6.564;2022-12-16T00:05:53;73.80;;;37.17;;
56455;SDS011;42354;53.218;6.564;2022-12-16T00:08:19;66.82;;;35.08;;
56455;SDS011;42354;53.218;6.564;2022-12-16T00:10:44;73.47;;;35.53;;
56455;SDS011;42354;53.218;6.564;2022-12-16T00:13:18;66.13;;;34.38;;
56455;SDS011;42354;53.218;6.564;2022-12-16T00:15:44;65.63;;;34.10;;
56455;SDS011;42354;53.218;6.564;2022-12-16T00:18:13;63.65;;;33.45;;
56455;SDS011;42354;53.218;6.564;2022-12-16T00:20:43;64.43;;;31.67;;
56455;SDS011;42354;53.218;6.564;2022-12-16T00:23:09;61.42;;;32.25;;
56455;SDS011;42354;53.218;6.564;2022-12-16T00:25:35;60.72;;;31.48;;
56455;SDS011;42354;53.218;6.564;2022-12-16T00:28:00;63.30;;;32.35;;
56455;SDS011;42354;53.218;6.564;2022-12-16T00:30:25;58.00;;;29.25;;
56455;SDS011;42354;53.218;6.564;2022-12-16T00:32:51;52.67;;;27.40;;
56455;SDS011;42354;53.218;6.564;2022-12-16T00:35:16;48.67;;;25.85;;
56455;SDS011;42354;53.218;6.564;2022-12-16T00:37:41;40.88;;;21.25;;
56455;SDS011;42354;53.218;6.564;2022-12-16T00:40:07;36.45;;;19.08;;
56455;SDS011;42354;53.218;6.564;2022-12-16T00:42:33;31.83;;;16.77;;
56455;SDS011;42354;53.218;6.564;2022-12-16T00:44:58;28.42;;;15.45;;
56455;SDS011;42354;53.218;6.564;2022-12-16T00:47:24;30.73;;;13.88;;
56455;SDS011;42354;53.218;6.564;2022-12-16T00:49:49;23.17;;;11.55;;
56455;SDS011;42354;53.218;6.564;2022-12-16T00:52:14;25.77;;;11.63;;
56455;SDS011;42354;53.218;6.564;2022-12-16T00:54:40;21.30;;;11.05;;
56455;SDS011;42354;53.218;6.564;2022-12-16T00:57:05;22.60;;;10.02;;
56455;SDS011;42354;53.218;6.564;2022-12-16T00:59:30;16.05;;;8.27;;
56455;SDS011;42354;53.218;6.564;2022-12-16T01:01:56;18.92;;;9.43;;
56455;SDS011;42354;53.218;6.564;2022-12-16T01:04:21;18.35;;;7.95;;
56455;SDS011;42354;53.218;6.564;2022-12-16T01:06:46;12.70;;;6.90;;
56455;SDS011;42354;53.218;6.564;2022-12-16T01:09:12;12.93;;;5.60;;
56455;SDS011;42354;53.218;6.564;2022-12-16T01:11:37;15.60;;;6.10;;
56455;SDS011;42354;53.218;6.564;2022-12-16T01:14:02;10.30;;;5.75;;
56455;SDS011;42354;53.218;6.564;2022-12-16T01:16:28;9.68;;;5.07;;
56455;SDS011;42354;53.218;6.564;2022-12-16T01:18:54;11.82;;;5.72;;
56455;SDS011;42354;53.218;6.564;2022-12-16T01:21:20;11.65;;;5.68;;
56455;SDS011;42354;53.218;6.564;2022-12-16T01:23:46;12.82;;;5.07;;
56455;SDS011;42354;53.218;6.564;2022-12-16T01:26:14;7.97;;;4.25;;
56455;SDS011;42354;53.218;6.564;2022-12-16T01:28:40;9.80;;;5.47;;
56455;SDS011;42354;53.218;6.564;2022-12-16T01:31:06;8.77;;;5.30;;
56455;SDS011;42354;53.218;6.564;2022-12-16T01:33:31;11.95;;;4.72;;
56455;SDS011;42354;53.218;6.564;2022-12-16T01:36:01;9.75;;;4.75;;
56455;SDS011;42354;53.218;6.564;2022-12-16T01:38:28;9.95;;;5.72;;
56455;SDS011;42354;53.218;6.564;2022-12-16T01:40:54;9.18;;;5.18;;
56455;SDS011;42354;53.218;6.564;2022-12-16T01:43:23;9.93;;;5.35;;
56455;SDS011;42354;53.218;6.564;2022-12-16T01:45:51;8.32;;;4.75;;
56455;SDS011;42354;53.218;6.564;2022-12-16T01:51:20;7.07;;;4.30;;
56455;SDS011;42354;53.218;6.564;2022-12-16T01:53:49;9.60;;;3.85;;
56455;SDS011;42354;53.218;6.564;2022-12-16T01:56:20;9.63;;;3.53;;
56455;SDS011;42354;53.218;6.564;2022-12-16T01:58:48;7.25;;;4.22;;
56455;SDS011;42354;53.218;6.564;2022-12-16T02:01:14;10.70;;;4.60;;
56455;SDS011;42354;53.218;6.564;2022-12-16T02:03:40;10.10;;;4.43;;
56455;SDS011;42354;53.218;6.564;2022-12-16T02:06:06;5.47;;;3.75;;
56455;SDS011;42354;53.218;6.564;2022-12-16T02:08:32;7.07;;;3.70;;
56455;SDS011;42354;53.218;6.564;2022-12-16T02:11:10;8.80;;;3.92;;
56455;SDS011;42354;53.218;6.564;2022-12-16T02:14:04;11.52;;;4.15;;
56455;SDS011;42354;53.218;6.564;2022-12-16T02:16:54;8.97;;;3.87;;
56455;SDS011;42354;53.218;6.564;2022-12-16T02:22:40;10.18;;;3.65;;
56455;SDS011;42354;53.218;6.564;2022-12-16T02:28:02;6.43;;;3.50;;
56455;SDS011;42354;53.218;6.564;2022-12-16T02:38:23;9.75;;;4.53;;
56455;SDS011;42354;53.218;6.564;2022-12-16T02:44:11;11.38;;;4.30;;
56455;SDS011;42354;53.218;6.564;2022-12-16T02:46:50;10.23;;;4.05;;
56455;SDS011;42354;53.218;6.564;2022-12-16T02:51:43;16.38;;;5.20;;
56455;SDS011;42354;53.218;6.564;2022-12-16T02:54:09;12.00;;;5.20;;
56455;SDS011;42354;53.218;6.564;2022-12-16T02:56:59;11.48;;;5.68;;
56455;SDS011;42354;53.218;6.564;2022-12-16T03:04:50;17.83;;;5.50;;
56455;SDS011;42354;53.218;6.564;2022-12-16T03:07:19;14.13;;;6.65;;
56455;SDS011;42354;53.218;6.564;2022-12-16T03:09:48;17.30;;;6.35;;
56455;SDS011;42354;53.218;6.564;2022-12-16T03:12:15;14.05;;;6.88;;
56455;SDS011;42354;53.218;6.564;2022-12-16T03:14:44;12.20;;;6.72;;
56455;SDS011;42354;53.218;6.564;2022-12-16T03:17:13;15.07;;;7.85;;
56455;SDS011;42354;53.218;6.564;2022-12-16T03:19:40;19.48;;;9.88;;
56455;SDS011;42354;53.218;6.564;2022-12-16T03:22:14;15.88;;;9.45;;
56455;SDS011;42354;53.218;6.564;2022-12-16T03:24:44;17.88;;;10.57;;
56455;SDS011;42354;53.218;6.564;2022-12-16T03:30:19;28.70;;;14.93;;
56455;SDS011;42354;53.218;6.564;2022-12-16T03:33:51;24.98;;;15.70;;
56455;SDS011;42354;53.218;6.564;2022-12-16T03:36:03;44.50;;;18.98;;
56455;SDS011;42354;53.218;6.564;2022-12-16T03:41:21;37.22;;;20.58;;
56455;SDS011;42354;53.218;6.564;2022-12-16T03:43:48;45.70;;;23.60;;
56455;SDS011;42354;53.218;6.564;2022-12-16T03:46:15;43.63;;;24.58;;
56455;SDS011;42354;53.218;6.564;2022-12-16T03:48:45;51.22;;;26.73;;
56455;SDS011;42354;53.218;6.564;2022-12-16T03:51:15;49.85;;;27.83;;
56455;SDS011;42354;53.218;6.564;2022-12-16T03:53:41;54.33;;;26.92;;
56455;SDS011;42354;53.218;6.564;2022-12-16T03:56:07;56.75;;;27.58;;
56455;SDS011;42354;53.218;6.564;2022-12-16T03:58:33;53.85;;;28.33;;
56455;SDS011;42354;53.218;6.564;2022-12-16T04:00:59;52.10;;;29.02;;
56455;SDS011;42354;53.218;6.564;2022-12-16T04:03:25;60.90;;;29.70;;
56455;SDS011;42354;53.218;6.564;2022-12-16T04:05:50;56.40;;;28.75;;
56455;SDS011;42354;53.218;6.564;2022-12-16T04:08:15;58.17;;;30.00;;
56455;SDS011;42354;53.218;6.564;2022-12-16T04:10:41;56.38;;;31.33;;
56455;SDS011;42354;53.218;6.564;2022-12-16T04:13:25;59.67;;;30.05;;
56455;SDS011;42354;53.218;6.564;2022-12-16T04:16:12;67.53;;;31.58;;
56455;SDS011;42354;53.218;6.564;2022-12-16T04:18:58;64.53;;;34.05;;
56455;SDS011;42354;53.218;6.564;2022-12-16T04:21:44;61.85;;;32.15;;
56455;SDS011;42354;53.218;6.564;2022-12-16T04:24:28;72.20;;;33.17;;
56455;SDS011;42354;53.218;6.564;2022-12-16T04:26:54;72.30;;;33.30;;
56455;SDS011;42354;53.218;6.564;2022-12-16T04:29:38;75.35;;;35.33;;
56455;SDS011;42354;53.218;6.564;2022-12-16T04:32:24;74.03;;;34.33;;
56455;SDS011;42354;53.218;6.564;2022-12-16T04:34:50;75.53;;;34.50;;
56455;SDS011;42354;53.218;6.564;2022-12-16T04:37:16;81.88;;;35.00;;
56455;SDS011;42354;53.218;6.564;2022-12-16T04:40:00;76.25;;;33.28;;
56455;SDS011;42354;53.218;6.564;2022-12-16T04:42:44;75.13;;;34.25;;
56455;SDS011;42354;53.218;6.564;2022-12-16T04:45:28;83.13;;;36.30;;
56455;SDS011;42354;53.218;6.564;2022-12-16T04:48:12;68.68;;;32.58;;
56455;SDS011;42354;53.218;6.564;2022-12-16T04:50:56;70.53;;;33.30;;
56455;SDS011;42354;53.218;6.564;2022-12-16T04:53:40;73.15;;;32.30;;
56455;SDS011;42354;53.218;6.564;2022-12-16T04:56:24;73.10;;;34.38;;
56455;SDS011;42354;53.218;6.564;2022-12-16T04:59:08;70.40;;;32.08;;
56455;SDS011;42354;53.218;6.564;2022-12-16T05:01:52;75.55;;;34.50;;
56455;SDS011;42354;53.218;6.564;2022-12-16T05:04:36;72.22;;;35.40;;
56455;SDS011;42354;53.218;6.564;2022-12-16T05:07:20;78.38;;;35.15;;
56455;SDS011;42354;53.218;6.564;2022-12-16T05:10:04;78.45;;;36.08;;
56455;SDS011;42354;53.218;6.564;2022-12-16T05:12:51;82.78;;;36.53;;
56455;SDS011;42354;53.218;6.564;2022-12-16T05:15:36;86.93;;;36.70;;
56455;SDS011;42354;53.218;6.564;2022-12-16T05:18:20;81.50;;;37.72;;
56455;SDS011;42354;53.218;6.564;2022-12-16T05:23:48;86.20;;;38.65;;
56455;SDS011;42354;53.218;6.564;2022-12-16T05:26:32;87.25;;;39.50;;
56455;SDS011;42354;53.218;6.564;2022-12-16T05:29:16;85.03;;;38.03;;
56455;SDS011;42354;53.218;6.564;2022-12-16T05:32:00;88.07;;;39.08;;
56455;SDS011;42354;53.218;6.564;2022-12-16T05:34:44;88.15;;;39.85;;
56455;SDS011;42354;53.218;6.564;2022-12-16T05:37:32;92.90;;;42.25;;
56455;SDS011;42354;53.218;6.564;2022-12-16T05:40:16;97.85;;;41.45;;
56455;SDS011;42354;53.218;6.564;2022-12-16T05:43:00;85.78;;;39.22;;
56455;SDS011;42354;53.218;6.564;2022-12-16T05:45:44;93.30;;;43.30;;
56455;SDS011;42354;53.218;6.564;2022-12-16T05:51:15;89.00;;;40.75;;
56455;SDS011;42354;53.218;6.564;2022-12-16T05:53:59;90.40;;;42.35;;
56455;SDS011;42354;53.218;6.564;2022-12-16T05:56:43;95.63;;;42.85;;
56455;SDS011;42354;53.218;6.564;2022-12-16T05:59:27;94.32;;;40.83;;
56455;SDS011;42354;53.218;6.564;2022-12-16T06:02:11;90.32;;;40.38;;
56455;SDS011;42354;53.218;6.564;2022-12-16T06:04:55;88.68;;;40.30;;
56455;SDS011;42354;53.218;6.564;2022-12-16T06:07:39;85.45;;;40.83;;
56455;SDS011;42354;53.218;6.564;2022-12-16T06:13:06;82.70;;;37.92;;
56455;SDS011;42354;53.218;6.564;2022-12-16T06:15:50;85.95;;;39.42;;
56455;SDS011;42354;53.218;6.564;2022-12-16T06:18:34;85.03;;;38.78;;
56455;SDS011;42354;53.218;6.564;2022-12-16T06:21:18;90.18;;;39.95;;
56455;SDS011;42354;53.218;6.564;2022-12-16T06:24:02;87.32;;;37.83;;
56455;SDS011;42354;53.218;6.564;2022-12-16T06:26:47;83.15;;;40.80;;
56455;SDS011;42354;53.218;6.564;2022-12-16T06:29:31;85.32;;;39.60;;
56455;SDS011;42354;53.218;6.564;2022-12-16T06:32:15;90.50;;;41.58;;
56455;SDS011;42354;53.218;6.564;2022-12-16T06:34:59;87.38;;;40.92;;
56455;SDS011;42354;53.218;6.564;2022-12-16T06:37:46;85.05;;;40.13;;
56455;SDS011;42354;53.218;6.564;2022-12-16T06:40:30;83.28;;;39.80;;
56455;SDS011;42354;53.218;6.564;2022-12-16T06:43:14;90.93;;;41.55;;
56455;SDS011;42354;53.218;6.564;2022-12-16T06:45:58;89.55;;;39.17;;
56455;SDS011;42354;53.218;6.564;2022-12-16T06:48:55;94.55;;;42.10;;
56455;SDS011;42354;53.218;6.564;2022-12-16T06:54:23;87.80;;;39.38;;
56455;SDS011;42354;53.218;6.564;2022-12-16T06:57:07;79.43;;;39.00;;
56455;SDS011;42354;53.218;6.564;2022-12-16T06:59:51;92.88;;;40.80;;
56455;SDS011;42354;53.218;6.564;2022-12-16T07:02:35;91.47;;;40.63;;
56455;SDS011;42354;53.218;6.564;2022-12-16T07:05:19;84.38;;;40.45;;
56455;SDS011;42354;53.218;6.564;2022-12-16T07:08:04;82.47;;;40.22;;
56455;SDS011;42354;53.218;6.564;2022-12-16T07:10:48;84.72;;;40.53;;
56455;SDS011;42354;53.218;6.564;2022-12-16T07:13:32;88.18;;;41.00;;
56455;SDS011;42354;53.218;6.564;2022-12-16T07:16:23;84.90;;;39.38;;
56455;SDS011;42354;53.218;6.564;2022-12-16T07:19:07;84.90;;;40.00;;
56455;SDS011;42354;53.218;6.564;2022-12-16T07:22:05;81.85;;;39.67;;
56455;SDS011;42354;53.218;6.564;2022-12-16T07:24:48;80.75;;;38.60;;
56455;SDS011;42354;53.218;6.564;2022-12-16T07:27:32;87.13;;;39.22;;
56455;SDS011;42354;53.218;6.564;2022-12-16T07:30:17;76.32;;;38.60;;
56455;SDS011;42354;53.218;6.564;2022-12-16T07:33:01;82.93;;;40.45;;
56455;SDS011;42354;53.218;6.564;2022-12-16T07:35:45;78.10;;;38.97;;
56455;SDS011;42354;53.218;6.564;2022-12-16T07:38:29;84.97;;;39.65;;
56455;SDS011;42354;53.218;6.564;2022-12-16T07:41:13;85.35;;;41.10;;
56455;SDS011;42354;53.218;6.564;2022-12-16T07:43:57;81.88;;;40.42;;
56455;SDS011;42354;53.218;6.564;2022-12-16T07:46:41;90.03;;;42.35;;
56455;SDS011;42354;53.218;6.564;2022-12-16T07:49:25;90.15;;;40.70;;
56455;SDS011;42354;53.218;6.564;2022-12-16T07:52:09;92.68;;;41.72;;
56455;SDS011;42354;53.218;6.564;2022-12-16T07:57:38;91.05;;;40.67;;
56455;SDS011;42354;53.218;6.564;2022-12-16T08:00:22;94.00;;;41.25;;
56455;SDS011;42354;53.218;6.564;2022-12-16T08:03:05;97.10;;;42.63;;
56455;SDS011;42354;53.218;6.564;2022-12-16T08:05:50;93.22;;;42.45;;
56455;SDS011;42354;53.218;6.564;2022-12-16T08:08:33;88.15;;;42.03;;
56455;SDS011;42354;53.218;6.564;2022-12-16T08:11:17;100.30;;;42.13;;
56455;SDS011;42354;53.218;6.564;2022-12-16T08:14:01;98.03;;;41.78;;
56455;SDS011;42354;53.218;6.564;2022-12-16T08:16:45;87.97;;;40.33;;
56455;SDS011;42354;53.218;6.564;2022-12-16T08:19:29;96.40;;;41.45;;
56455;SDS011;42354;53.218;6.564;2022-12-16T08:22:13;99.68;;;42.35;;
56455;SDS011;42354;53.218;6.564;2022-12-16T08:24:57;101.10;;;43.42;;
56455;SDS011;42354;53.218;6.564;2022-12-16T08:27:42;91.53;;;40.90;;
56455;SDS011;42354;53.218;6.564;2022-12-16T08:30:26;105.57;;;41.80;;
56455;SDS011;42354;53.218;6.564;2022-12-16T08:33:10;95.63;;;39.92;;
56455;SDS011;42354;53.218;6.564;2022-12-16T08:38:40;99.47;;;39.88;;
56455;SDS011;42354;53.218;6.564;2022-12-16T08:41:24;90.80;;;40.53;;
56455;SDS011;42354;53.218;6.564;2022-12-16T08:44:08;105.80;;;40.67;;
56455;SDS011;42354;53.218;6.564;2022-12-16T08:46:52;97.00;;;39.53;;
56455;SDS011;42354;53.218;6.564;2022-12-16T08:49:36;94.40;;;39.58;;
56455;SDS011;42354;53.218;6.564;2022-12-16T08:52:20;94.95;;;38.72;;
56455;SDS011;42354;53.218;6.564;2022-12-16T08:55:04;94.40;;;39.13;;
56455;SDS011;42354;53.218;6.564;2022-12-16T08:57:52;100.88;;;40.42;;
56455;SDS011;42354;53.218;6.564;2022-12-16T09:00:36;96.35;;;40.67;;
56455;SDS011;42354;53.218;6.564;2022-12-16T09:03:20;104.35;;;42.42;;
56455;SDS011;42354;53.218;6.564;2022-12-16T09:06:04;100.82;;;42.25;;
56455;SDS011;42354;53.218;6.564;2022-12-16T09:08:48;109.05;;;43.63;;
56455;SDS011;42354;53.218;6.564;2022-12-16T09:11:32;98.50;;;39.38;;
56455;SDS011;42354;53.218;6.564;2022-12-16T09:14:17;92.22;;;40.00;;
56455;SDS011;42354;53.218;6.564;2022-12-16T09:17:01;92.35;;;40.08;;
56455;SDS011;42354;53.218;6.564;2022-12-16T09:19:47;93.32;;;40.67;;
56455;SDS011;42354;53.218;6.564;2022-12-16T09:22:31;92.82;;;39.50;;
56455;SDS011;42354;53.218;6.564;2022-12-16T09:25:15;98.47;;;41.42;;
56455;SDS011;42354;53.218;6.564;2022-12-16T09:28:01;96.93;;;40.83;;
56455;SDS011;42354;53.218;6.564;2022-12-16T09:30:46;93.18;;;42.15;;
56455;SDS011;42354;53.218;6.564;2022-12-16T09:33:29;96.93;;;43.22;;
56455;SDS011;42354;53.218;6.564;2022-12-16T09:36:14;96.60;;;42.42;;
56455;SDS011;42354;53.218;6.564;2022-12-16T09:38:58;96.82;;;40.15;;
56455;SDS011;42354;53.218;6.564;2022-12-16T09:45:01;95.35;;;41.35;;
56455;SDS011;42354;53.218;6.564;2022-12-16T09:48:13;97.28;;;40.97;;
56455;SDS011;42354;53.218;6.564;2022-12-16T09:51:03;89.20;;;40.58;;
56455;SDS011;42354;53.218;6.564;2022-12-16T09:53:52;100.85;;;43.33;;
56455;SDS011;42354;53.218;6.564;2022-12-16T09:56:38;96.32;;;42.47;;
56455;SDS011;42354;53.218;6.564;2022-12-16T09:59:28;113.38;;;44.20;;
56455;SDS011;42354;53.218;6.564;2022-12-16T10:02:16;100.18;;;44.40;;
56455;SDS011;42354;53.218;6.564;2022-12-16T10:05:05;104.35;;;44.92;;
56455;SDS011;42354;53.218;6.564;2022-12-16T10:13:47;103.80;;;45.05;;
56455;SDS011;42354;53.218;6.564;2022-12-16T10:22:29;110.75;;;45.28;;
56455;SDS011;42354;53.218;6.564;2022-12-16T10:25:21;109.32;;;44.03;;
56455;SDS011;42354;53.218;6.564;2022-12-16T10:28:16;118.50;;;46.10;;
56455;SDS011;42354;53.218;6.564;2022-12-16T10:31:02;106.95;;;44.13;;
56455;SDS011;42354;53.218;6.564;2022-12-16T10:33:55;115.53;;;46.65;;
56455;SDS011;42354;53.218;6.564;2022-12-16T10:36:39;109.97;;;44.88;;
56455;SDS011;42354;53.218;6.564;2022-12-16T10:39:27;104.80;;;45.30;;
56455;SDS011;42354;53.218;6.564;2022-12-16T10:42:17;103.93;;;43.58;;
56455;SDS011;42354;53.218;6.564;2022-12-16T10:45:03;121.00;;;46.50;;
56455;SDS011;42354;53.218;6.564;2022-12-16T10:47:50;105.32;;;43.88;;
56455;SDS011;42354;53.218;6.564;2022-12-16T10:50:35;119.22;;;45.00;;
56455;SDS011;42354;53.218;6.564;2022-12-16T10:53:26;100.13;;;42.97;;
56455;SDS011;42354;53.218;6.564;2022-12-16T10:59:36;117.07;;;44.35;;
56455;SDS011;42354;53.218;6.564;2022-12-16T11:02:22;110.80;;;45.28;;
56455;SDS011;42354;53.218;6.564;2022-12-16T11:11:11;116.10;;;45.20;;
56455;SDS011;42354;53.218;6.564;2022-12-16T11:23:18;116.30;;;47.88;;
56455;SDS011;42354;53.218;6.564;2022-12-16T11:26:36;118.32;;;46.25;;
56455;SDS011;42354;53.218;6.564;2022-12-16T11:29:33;117.72;;;47.60;;
56455;SDS011;42354;53.218;6.564;2022-12-16T11:32:31;112.63;;;46.33;;
56455;SDS011;42354;53.218;6.564;2022-12-16T11:35:16;109.93;;;46.65;;
56455;SDS011;42354;53.218;6.564;2022-12-16T11:38:03;113.18;;;46.97;;
56455;SDS011;42354;53.218;6.564;2022-12-16T11:40:53;116.07;;;46.85;;
56455;SDS011;42354;53.218;6.564;2022-12-16T11:43:38;116.03;;;46.22;;
56455;SDS011;42354;53.218;6.564;2022-12-16T11:46:27;104.40;;;46.47;;
56455;SDS011;42354;53.218;6.564;2022-12-16T11:49:32;114.28;;;48.30;;
56455;SDS011;42354;53.218;6.564;2022-12-16T11:52:16;107.75;;;45.35;;
56455;SDS011;42354;53.218;6.564;2022-12-16T11:55:05;118.65;;;47.80;;
56455;SDS011;42354;53.218;6.564;2022-12-16T11:58:04;104.95;;;45.92;;
56455;SDS011;42354;53.218;6.564;2022-12-16T12:01:02;105.20;;;45.85;;
56455;SDS011;42354;53.218;6.564;2022-12-16T12:03:55;103.68;;;45.90;;
56455;SDS011;42354;53.218;6.564;2022-12-16T12:09:39;109.00;;;46.20;;
56455;SDS011;42354;53.218;6.564;2022-12-16T12:12:46;102.88;;;45.22;;
56455;SDS011;42354;53.218;6.564;2022-12-16T12:15:53;105.85;;;44.35;;
56455;SDS011;42354;53.218;6.564;2022-12-16T12:21:51;102.40;;;45.80;;
56455;SDS011;42354;53.218;6.564;2022-12-16T12:30:46;95.75;;;43.65;;
56455;SDS011;42354;53.218;6.564;2022-12-16T12:42:57;109.53;;;44.92;;
56455;SDS011;42354;53.218;6.564;2022-12-16T12:45:59;102.15;;;44.28;;
56455;SDS011;42354;53.218;6.564;2022-12-16T12:48:54;110.35;;;45.08;;
56455;SDS011;42354;53.218;6.564;2022-12-16T12:58:00;103.57;;;44.03;;
56455;SDS011;42354;53.218;6.564;2022-12-16T13:00:47;102.65;;;45.60;;
56455;SDS011;42354;53.218;6.564;2022-12-16T13:03:41;109.75;;;44.80;;
56455;SDS011;42354;53.218;6.564;2022-12-16T13:06:31;104.00;;;45.30;;
56455;SDS011;42354;53.218;6.564;2022-12-16T13:09:41;102.47;;;42.15;;
56455;SDS011;42354;53.218;6.564;2022-12-16T13:15:16;112.45;;;44.50;;
56455;SDS011;42354;53.218;6.564;2022-12-16T13:18:21;103.72;;;44.58;;
56455;SDS011;42354;53.218;6.564;2022-12-16T13:24:44;120.88;;;50.72;;
56455;SDS011;42354;53.218;6.564;2022-12-16T13:27:28;113.82;;;46.97;;
56455;SDS011;42354;53.218;6.564;2022-12-16T13:30:27;112.72;;;45.13;;
56455;SDS011;42354;53.218;6.564;2022-12-16T13:33:20;119.93;;;47.72;;
56455;SDS011;42354;53.218;6.564;2022-12-16T13:36:13;110.00;;;46.42;;
56455;SDS011;42354;53.218;6.564;2022-12-16T13:39:33;102.90;;;43.80;;
56455;SDS011;42354;53.218;6.564;2022-12-16T13:45:37;114.53;;;45.67;;
56455;SDS011;42354;53.218;6.564;2022-12-16T13:48:36;112.05;;;44.20;;
56455;SDS011;42354;53.218;6.564;2022-12-16T13:54:40;121.85;;;45.95;;
56455;SDS011;42354;53.218;6.564;2022-12-16T13:57:42;104.45;;;43.83;;
56455;SDS011;42354;53.218;6.564;2022-12-16T14:00:29;119.47;;;46.17;;
56455;SDS011;42354;53.218;6.564;2022-12-16T14:03:21;110.05;;;45.80;;
56455;SDS011;42354;53.218;6.564;2022-12-16T14:06:18;110.93;;;45.20;;
56455;SDS011;42354;53.218;6.564;2022-12-16T14:09:05;111.05;;;45.72;;
56455;SDS011;42354;53.218;6.564;2022-12-16T14:12:01;118.65;;;48.35;;
56455;SDS011;42354;53.218;6.564;2022-12-16T14:14:56;115.68;;;46.92;;
56455;SDS011;42354;53.218;6.564;2022-12-16T14:17:58;118.47;;;46.72;;
56455;SDS011;42354;53.218;6.564;2022-12-16T14:20:53;123.15;;;48.97;;
56455;SDS011;42354;53.218;6.564;2022-12-16T14:23:42;126.15;;;47.58;;
56455;SDS011;42354;53.218;6.564;2022-12-16T14:26:34;127.47;;;50.28;;
56455;SDS011;42354;53.218;6.564;2022-12-16T14:29:30;123.47;;;47.72;;
56455;SDS011;42354;53.218;6.564;2022-12-16T14:32:34;130.63;;;51.58;;
56455;SDS011;42354;53.218;6.564;2022-12-16T14:35:25;126.72;;;51.60;;
56455;SDS011;42354;53.218;6.564;2022-12-16T14:40:57;132.88;;;53.20;;
56455;SDS011;42354;53.218;6.564;2022-12-16T14:43:42;140.88;;;52.35;;
56455;SDS011;42354;53.218;6.564;2022-12-16T14:46:27;136.13;;;52.38;;
56455;SDS011;42354;53.218;6.564;2022-12-16T14:49:23;143.07;;;54.53;;
56455;SDS011;42354;53.218;6.564;2022-12-16T14:52:16;135.35;;;52.42;;
56455;SDS011;42354;53.218;6.564;2022-12-16T14:55:15;149.85;;;52.92;;
56455;SDS011;42354;53.218;6.564;2022-12-16T14:58:16;146.00;;;52.90;;
56455;SDS011;42354;53.218;6.564;2022-12-16T15:01:10;139.88;;;50.40;;
56455;SDS011;42354;53.218;6.564;2022-12-16T15:03:58;143.90;;;54.03;;
56455;SDS011;42354;53.218;6.564;2022-12-16T15:06:43;146.20;;;51.40;;
56455;SDS011;42354;53.218;6.564;2022-12-16T15:09:32;153.60;;;53.80;;
56455;SDS011;42354;53.218;6.564;2022-12-16T15:12:22;143.43;;;54.15;;
56455;SDS011;42354;53.218;6.564;2022-12-16T15:15:08;156.07;;;56.75;;
56455;SDS011;42354;53.218;6.564;2022-12-16T15:17:59;148.85;;;56.88;;
56455;SDS011;42354;53.218;6.564;2022-12-16T15:20:51;151.75;;;53.15;;
56455;SDS011;42354;53.218;6.564;2022-12-16T15:23:38;149.52;;;54.65;;
56455;SDS011;42354;53.218;6.564;2022-12-16T15:26:25;158.00;;;55.42;;
56455;SDS011;42354;53.218;6.564;2022-12-16T15:32:26;157.73;;;56.15;;
56455;SDS011;42354;53.218;6.564;2022-12-16T15:38:21;150.82;;;54.78;;
56455;SDS011;42354;53.218;6.564;2022-12-16T15:41:22;148.07;;;54.45;;
56455;SDS011;42354;53.218;6.564;2022-12-16T15:44:16;155.00;;;54.05;;
56455;SDS011;42354;53.218;6.564;2022-12-16T15:47:15;135.68;;;54.58;;
56455;SDS011;42354;53.218;6.564;2022-12-16T15:50:09;152.50;;;54.50;;
56455;SDS011;42354;53.218;6.564;2022-12-16T15:53:12;147.80;;;54.28;;
56455;SDS011;42354;53.218;6.564;2022-12-16T15:55:57;153.30;;;53.80;;
56455;SDS011;42354;53.218;6.564;2022-12-16T15:58:41;140.82;;;53.15;;
56455;SDS011;42354;53.218;6.564;2022-12-16T16:01:26;143.27;;;53.22;;
56455;SDS011;42354;53.218;6.564;2022-12-16T16:04:18;145.77;;;54.65;;
56455;SDS011;42354;53.218;6.564;2022-12-16T16:07:19;139.85;;;53.80;;
56455;SDS011;42354;53.218;6.564;2022-12-16T16:13:02;136.80;;;53.63;;
56455;SDS011;42354;53.218;6.564;2022-12-16T16:15:47;133.07;;;50.65;;
56455;SDS011;42354;53.218;6.564;2022-12-16T16:18:31;162.23;;;56.88;;
56455;SDS011;42354;53.218;6.564;2022-12-16T16:21:15;155.13;;;57.38;;
56455;SDS011;42354;53.218;6.564;2022-12-16T16:23:59;157.18;;;55.35;;
56455;SDS011;42354;53.218;6.564;2022-12-16T16:26:43;164.63;;;57.45;;
56455;SDS011;42354;53.218;6.564;2022-12-16T16:29:27;149.85;;;55.30;;
56455;SDS011;42354;53.218;6.564;2022-12-16T16:32:11;155.77;;;55.45;;
56455;SDS011;42354;53.218;6.564;2022-12-16T16:34:55;148.38;;;54.30;;
56455;SDS011;42354;53.218;6.564;2022-12-16T16:37:39;133.25;;;51.53;;
56455;SDS011;42354;53.218;6.564;2022-12-16T16:40:36;130.65;;;52.35;;
56455;SDS011;42354;53.218;6.564;2022-12-16T16:43:22;129.77;;;50.03;;
56455;SDS011;42354;53.218;6.564;2022-12-16T16:46:41;135.13;;;51.45;;
56455;SDS011;42354;53.218;6.564;2022-12-16T16:49:19;119.10;;;47.33;;
56455;SDS011;42354;53.218;6.564;2022-12-16T16:52:12;126.60;;;52.58;;
56455;SDS011;42354;53.218;6.564;2022-12-16T16:54:57;138.80;;;50.15;;
56455;SDS011;42354;53.218;6.564;2022-12-16T16:57:41;130.45;;;48.08;;
56455;SDS011;42354;53.218;6.564;2022-12-16T17:00:25;133.95;;;50.53;;
56455;SDS011;42354;53.218;6.564;2022-12-16T17:03:09;135.23;;;52.25;;
56455;SDS011;42354;53.218;6.564;2022-12-16T17:05:53;148.82;;;51.42;;
56455;SDS011;42354;53.218;6.564;2022-12-16T17:08:37;132.48;;;50.08;;
56455;SDS011;42354;53.218;6.564;2022-12-16T17:11:21;136.57;;;53.28;;
56455;SDS011;42354;53.218;6.564;2022-12-16T17:14:09;152.75;;;55.05;;
56455;SDS011;42354;53.218;6.564;2022-12-16T17:16:57;155.60;;;53.35;;
56455;SDS011;42354;53.218;6.564;2022-12-16T17:19:41;153.13;;;52.33;;
56455;SDS011;42354;53.218;6.564;2022-12-16T17:22:26;154.02;;;54.33;;
56455;SDS011;42354;53.218;6.564;2022-12-16T17:25:11;154.52;;;52.92;;
56455;SDS011;42354;53.218;6.564;2022-12-16T17:27:55;158.32;;;53.83;;
56455;SDS011;42354;53.218;6.564;2022-12-16T17:30:39;131.55;;;48.20;;
56455;SDS011;42354;53.218;6.564;2022-12-16T17:33:23;138.80;;;50.65;;
56455;SDS011;42354;53.218;6.564;2022-12-16T17:36:09;134.82;;;50.42;;
56455;SDS011;42354;53.218;6.564;2022-12-16T17:38:55;151.15;;;50.00;;
56455;SDS011;42354;53.218;6.564;2022-12-16T17:41:39;151.65;;;51.17;;
56455;SDS011;42354;53.218;6.564;2022-12-16T17:44:23;155.65;;;52.35;;
56455;SDS011;42354;53.218;6.564;2022-12-16T17:47:07;154.40;;;55.88;;
56455;SDS011;42354;53.218;6.564;2022-12-16T17:49:51;167.65;;;54.42;;
56455;SDS011;42354;53.218;6.564;2022-12-16T17:52:35;147.13;;;49.88;;
56455;SDS011;42354;53.218;6.564;2022-12-16T17:55:19;159.02;;;53.10;;
56455;SDS011;42354;53.218;6.564;2022-12-16T17:58:03;169.98;;;53.42;;
56455;SDS011;42354;53.218;6.564;2022-12-16T18:00:47;181.05;;;55.13;;
56455;SDS011;42354;53.218;6.564;2022-12-16T18:03:31;179.98;;;55.80;;
56455;SDS011;42354;53.218;6.564;2022-12-16T18:06:15;192.95;;;58.78;;